Terminal Aerodrome Forecast
Issued by NWS

Home | Current Version | Previous Version | Text Only | Print | Product List | Glossary On
Versions: 1 2 3 4 5 6 7 8 9 10 11 12
000
FTAK31 PAFA 281740
TAFASC
TAF
PASC 281740Z 2818/2918 09015KT P6SM SCT008
     FM290600 08012KT 5SM -FZDZ BR BKN007
     FM291000 08018KT 2SM -FZDZ BR OVC007
     FM291300 08013KT 1/2SM FG OVC004=

USA.gov is the U.S. government's official web portal to all federal, state and local government web resources and services.